This is the latest recevied weather packets stored in our database for station/object EA4IAJ-12. If no packets are shown the sender has not sent any weather packets the latest 10 day(s).
| Time | Temp. | Humidity | Pressure | Rain* | Wind** | Luminosity | Snow |
|---|---|---|---|---|---|---|---|
| 1787678477 | 27.22° C | 41% | 1027.4 hPa | - | - | - | - |
| 1787677576 | 27.78° C | 42% | 1031.2 hPa | - | - | - | - |
| 1787676676 | 28.89° C | 42% | 1033.7 hPa | - | - | - | - |
| 1787675775 | 28.89° C | 43% | 1035.3 hPa | - | - | - | - |
| 1787674875 | 28.89° C | 43% | 1034.4 hPa | - | - | - | - |
| 1787673974 | 31.11° C | 45% | 1043.3 hPa | - | - | - | - |
| 1787673086 | 30.56° C | 46% | 1041.2 hPa | - | - | - | - |
| 1787672185 | 31.11° C | 47% | 1043.9 hPa | - | - | - | - |
| 1787670384 | 30.56° C | 51% | 1044.5 hPa | - | - | - | - |
| 1787668583 | 31.11° C | 56% | 1046.2 hPa | - | - | - | - |
| 1787667682 | 31.67° C | 61% | 1050.6 hPa | - | - | - | - |
| 1787666782 | 32.22° C | 66% | 1053.5 hPa | - | - | - | - |
| 1787665882 | 31.67° C | 69% | 1052 hPa | - | - | - | - |
| 1787664981 | 31.67° C | 73% | 1050.8 hPa | - | - | - | - |
| 1787664080 | 32.22° C | 78% | 1053.6 hPa | - | - | - | - |
| 1787663180 | 31.11° C | 81% | 1050 hPa | - | - | - | - |
| 1787662279 | 28.33° C | 83% | 1038.7 hPa | - | - | - | - |
| 1787661379 | 30° C | 89% | 1047 hPa | - | - | - | - |
| 1787660478 | 28.33° C | 91% | 1041 hPa | - | - | - | - |
| 1787659577 | 30.56° C | 98% | 1051.5 hPa | - | - | - | - |
| 1787658677 | 31.67° C | 100% | 1055.3 hPa | - | - | - | - |
| 1787657776 | 30.56° C | 100% | 1051.3 hPa | - | - | - | - |
| 1787656876 | 31.11° C | 100% | 1056.9 hPa | - | - | - | - |
| 1787655975 | 30° C | 100% | 1051.3 hPa | - | - | - | - |
| 1787655075 | 30° C | 100% | 1053.1 hPa | - | - | - | - |
* Rain since midnight (hover to see other rain measurements)
** Current wind speed in m/s (hover to see current wind gust speed)